Time;durP1;ratioP1;P1;durP2;ratioP2;P2;SDS_P1;SDS_P2;PMS_P1;PMS_P2;Temp;Humidity;BMP_temperature;BMP_pressure;BME280_temperature;BME280_humidity;BME280_pressure;Samples;Min_cycle;Max_cycle;Signal;HPM_P1;HPM_P2
2023/12/19 00:01:11;;;;;;;40.20;25.98;;;9.50;92.10;;;;;;5072365;28;20039;-88
2023/12/19 00:03:37;;;;;;;37.90;25.48;;;9.00;92.00;;;;;;5076235;28;20047;-90
2023/12/19 00:06:03;;;;;;;40.50;26.00;;;9.60;92.10;;;;;;5078703;28;20028;-89
2023/12/19 00:08:28;;;;;;;36.78;25.52;;;8.80;91.90;;;;;;5067815;28;20036;-89
2023/12/19 00:10:55;;;;;;;36.20;24.40;;;9.20;92.00;;;;;;5086798;28;20410;-90
2023/12/19 00:13:21;;;;;;;39.10;24.15;;;8.90;92.00;;;;;;5060836;28;20029;-90
2023/12/19 00:15:47;;;;;;;39.92;24.42;;;8.60;91.90;;;;;;5071471;28;20522;-90
2023/12/19 00:18:13;;;;;;;34.83;24.10;;;9.00;92.00;;;;;;5062333;28;20028;-90
2023/12/19 00:20:39;;;;;;;39.97;25.20;;;9.00;92.00;;;;;;5072925;28;20039;-90
2023/12/19 00:23:05;;;;;;;36.78;25.48;;;9.20;92.10;;;;;;5065874;28;20045;-90
2023/12/19 00:25:31;;;;;;;31.90;22.77;;;9.40;92.20;;;;;;5071468;28;20082;-90
2023/12/19 00:27:58;;;;;;;34.97;23.75;;;9.10;92.10;;;;;;5069619;28;20032;-90
2023/12/19 00:30:26;;;;;;;35.67;23.55;;;8.70;92.00;;;;;;5073118;28;20032;-90
2023/12/19 00:32:52;;;;;;;32.15;21.30;;;8.20;91.80;;;;;;5064643;28;20461;-90
2023/12/19 00:35:18;;;;;;;34.90;22.02;;;8.60;92.00;;;;;;5068428;28;20040;-90
2023/12/19 00:37:44;;;;;;;30.65;21.40;;;9.40;92.20;;;;;;5074822;28;20048;-90
2023/12/19 00:40:13;;;;;;;31.83;21.60;;;9.20;92.20;;;;;;5093390;28;20429;-89
2023/12/19 00:42:39;;;;;;;32.35;21.35;;;8.60;92.00;;;;;;5106300;28;20028;-90
2023/12/19 00:45:05;;;;;;;30.98;21.00;;;9.10;92.20;;;;;;5084135;28;20040;-90
2023/12/19 00:47:31;;;;;;;31.15;21.92;;;8.60;92.10;;;;;;5087132;28;20563;-90
2023/12/19 00:49:57;;;;;;;32.47;21.80;;;9.10;92.20;;;;;;5104510;28;20024;-90
2023/12/19 00:52:22;;;;;;;32.78;21.50;;;9.00;92.20;;;;;;5086724;28;20044;-90
2023/12/19 00:54:48;;;;;;;31.30;20.65;;;9.20;92.30;;;;;;5082604;28;20032;-90
2023/12/19 00:57:14;;;;;;;32.05;20.85;;;8.20;92.00;;;;;;5086167;28;20031;-90
2023/12/19 00:59:40;;;;;;;29.95;20.35;;;8.70;92.20;;;;;;5085258;28;20042;-90
2023/12/19 01:02:06;;;;;;;29.88;20.30;;;8.50;92.10;;;;;;5084465;28;20769;-90
2023/12/19 01:04:32;;;;;;;30.08;21.05;;;8.70;92.20;;;;;;5090222;28;20454;-89
2023/12/19 01:06:57;;;;;;;30.98;21.10;;;9.40;92.40;;;;;;5086735;28;20036;-90
2023/12/19 01:09:23;;;;;;;29.77;19.85;;;8.90;92.20;;;;;;5087267;28;20043;-89
2023/12/19 01:11:49;;;;;;;32.22;21.35;;;8.80;92.20;;;;;;5089109;28;20090;-90
2023/12/19 01:14:15;;;;;;;29.38;20.73;;;8.60;92.20;;;;;;5095185;28;20491;-90
2023/12/19 01:16:41;;;;;;;28.77;19.83;;;9.10;92.30;;;;;;5097374;28;20145;-90
2023/12/19 01:19:09;;;;;;;33.50;21.15;;;8.90;92.30;;;;;;5104740;28;20036;-89
2023/12/19 01:21:36;;;;;;;28.27;19.63;;;9.10;92.40;;;;;;5093496;28;20035;-90
2023/12/19 01:24:03;;;;;;;30.58;20.05;;;9.20;92.60;;;;;;5093182;28;20035;-90
2023/12/19 01:26:29;;;;;;;30.80;20.50;;;8.20;92.10;;;;;;5087114;28;20032;-90
2023/12/19 01:28:54;;;;;;;28.50;19.73;;;8.60;92.20;;;;;;5083242;28;20051;-89
2023/12/19 01:31:20;;;;;;;29.90;20.27;;;8.20;92.10;;;;;;5098261;28;20028;-89
2023/12/19 01:33:46;;;;;;;27.52;19.90;;;8.50;92.20;;;;;;5102133;28;20052;-90
2023/12/19 01:36:12;;;;;;;27.80;20.13;;;8.70;92.30;;;;;;5088822;28;20040;-90
2023/12/19 01:38:38;;;;;;;29.70;21.30;;;8.50;92.20;;;;;;5090466;28;20037;-89
2023/12/19 01:41:04;;;;;;;30.88;20.92;;;8.70;92.30;;;;;;5109931;28;20113;-90
2023/12/19 01:43:29;;;;;;;29.73;20.48;;;8.70;92.30;;;;;;5088552;28;20035;-89
2023/12/19 01:45:55;;;;;;;27.58;20.98;;;8.70;92.30;;;;;;5107252;28;20042;-90
2023/12/19 01:48:24;;;;;;;34.05;21.27;;;8.80;92.40;;;;;;5092842;28;20039;-90
2023/12/19 01:50:50;;;;;;;30.35;21.13;;;9.40;92.60;;;;;;5088604;27;20097;-90
2023/12/19 01:53:16;;;;;;;32.97;21.48;;;8.20;92.20;;;;;;5108828;28;20039;-90
2023/12/19 01:55:42;;;;;;;37.30;22.35;;;8.20;92.20;;;;;;5094887;27;20123;-89
2023/12/19 01:58:09;;;;;;;31.50;21.33;;;9.40;92.60;;;;;;5113970;27;20059;-90
2023/12/19 02:00:37;;;;;;;30.75;20.92;;;9.30;92.50;;;;;;5103017;27;20132;-90
2023/12/19 02:03:04;;;;;;;28.90;21.85;;;8.60;92.40;;;;;;5097323;27;20540;-90
2023/12/19 02:05:30;;;;;;;27.30;20.48;;;8.40;92.30;;;;;;5093334;27;20035;-90
2023/12/19 02:07:56;;;;;;;26.30;20.45;;;9.20;92.50;;;;;;5092160;27;20038;-90
2023/12/19 02:10:24;;;;;;;26.45;19.88;;;8.70;92.40;;;;;;5109644;27;20039;-90
2023/12/19 02:12:51;;;;;;;27.13;19.55;;;8.70;92.40;;;;;;5091891;27;20032;-90
2023/12/19 02:15:17;;;;;;;28.85;20.83;;;8.70;92.40;;;;;;5093133;27;20053;-90
2023/12/19 02:17:44;;;;;;;28.13;21.17;;;9.10;92.50;;;;;;5092997;27;20054;-89
2023/12/19 02:20:10;;;;;;;26.50;19.70;;;9.40;92.60;;;;;;5094936;27;20401;-90
2023/12/19 02:22:36;;;;;;;28.17;19.75;;;8.60;92.40;;;;;;5092270;27;20035;-90
2023/12/19 02:25:02;;;;;;;25.60;19.42;;;8.70;92.40;;;;;;5089853;27;20402;-90
2023/12/19 02:27:28;;;;;;;24.95;18.98;;;8.30;92.30;;;;;;5110722;27;20449;-90
2023/12/19 02:29:54;;;;;;;24.70;18.38;;;9.10;92.60;;;;;;5091757;28;20035;-90
2023/12/19 02:32:20;;;;;;;26.08;17.77;;;9.00;92.50;;;;;;5095996;27;20036;-90
2023/12/19 02:34:48;;;;;;;23.77;18.27;;;8.70;92.40;;;;;;5104054;27;20045;-90
2023/12/19 02:37:14;;;;;;;23.08;16.70;;;9.10;92.50;;;;;;5099024;28;20051;-89
2023/12/19 02:39:42;;;;;;;22.42;17.20;;;9.50;92.60;;;;;;5088381;28;20051;-89
2023/12/19 02:42:10;;;;;;;23.75;17.33;;;8.80;92.50;;;;;;5088425;28;20035;-89
2023/12/19 02:44:36;;;;;;;21.23;16.33;;;8.80;92.50;;;;;;5087113;28;20406;-89
2023/12/19 02:47:02;;;;;;;22.27;15.98;;;8.70;92.40;;;;;;5092963;28;20092;-89
2023/12/19 02:49:28;;;;;;;22.95;17.17;;;8.40;92.30;;;;;;5089848;28;20032;-89
2023/12/19 02:51:54;;;;;;;20.33;16.15;;;8.40;92.30;;;;;;5087320;28;20115;-88
2023/12/19 02:54:20;;;;;;;21.23;15.90;;;8.90;92.50;;;;;;5096766;28;20148;-89
2023/12/19 02:56:45;;;;;;;24.30;17.20;;;8.60;92.40;;;;;;5106537;28;20039;-89
2023/12/19 02:59:11;;;;;;;20.35;16.23;;;9.10;92.50;;;;;;5089297;28;20043;-90
2023/12/19 03:01:37;;;;;;;19.73;15.48;;;9.10;92.50;;;;;;5089221;28;20116;-89
2023/12/19 03:04:03;;;;;;;22.20;16.73;;;9.10;92.50;;;;;;5085256;28;20046;-90
2023/12/19 03:06:29;;;;;;;22.75;17.17;;;9.00;92.50;;;;;;5096761;28;20042;-90
2023/12/19 03:08:57;;;;;;;23.02;16.67;;;9.00;92.50;;;;;;5091927;28;20043;-88
2023/12/19 03:11:23;;;;;;;21.42;16.88;;;8.90;92.50;;;;;;5085634;28;20036;-88
2023/12/19 03:13:49;;;;;;;21.83;16.50;;;8.80;92.40;;;;;;5088950;28;20097;-89
2023/12/19 03:16:15;;;;;;;20.80;15.48;;;9.20;92.50;;;;;;5089925;28;20044;-89
2023/12/19 03:18:40;;;;;;;21.70;16.83;;;8.70;92.40;;;;;;5093552;28;20036;-89
2023/12/19 03:21:08;;;;;;;19.65;15.35;;;8.80;92.50;;;;;;5111542;28;20383;-89
2023/12/19 03:23:34;;;;;;;22.77;17.00;;;9.00;92.50;;;;;;5089626;28;20036;-89
2023/12/19 03:25:59;;;;;;;21.13;15.93;;;8.20;92.30;;;;;;5091438;28;20036;-89
2023/12/19 03:28:25;;;;;;;23.17;16.25;;;8.70;92.40;;;;;;5087566;28;20038;-89
2023/12/19 03:30:54;;;;;;;21.90;16.25;;;8.70;92.40;;;;;;5091890;28;20514;-89
2023/12/19 03:33:20;;;;;;;21.13;16.02;;;8.90;92.50;;;;;;5089839;28;20136;-89
2023/12/19 03:35:45;;;;;;;22.50;16.38;;;9.10;92.50;;;;;;5090738;28;20028;-90
2023/12/19 03:38:15;;;;;;;22.00;17.45;;;8.70;92.40;;;;;;5073664;28;20044;-89
2023/12/19 03:40:41;;;;;;;24.42;16.67;;;8.50;92.40;;;;;;5060824;28;20036;-89
2023/12/19 03:43:08;;;;;;;23.00;17.42;;;8.60;92.40;;;;;;5082180;28;20039;-89
2023/12/19 03:45:33;;;;;;;26.70;16.55;;;8.90;92.50;;;;;;5070911;28;20404;-89
2023/12/19 03:48:02;;;;;;;23.25;17.60;;;8.80;92.50;;;;;;5070512;28;20039;-89
2023/12/19 03:50:27;;;;;;;21.83;16.48;;;8.80;92.50;;;;;;5066338;28;20488;-89
2023/12/19 03:52:53;;;;;;;23.42;16.60;;;8.80;92.50;;;;;;5083356;28;20036;-89
2023/12/19 03:55:20;;;;;;;23.80;16.60;;;8.40;92.40;;;;;;5069266;28;20089;-89
2023/12/19 03:57:45;;;;;;;23.45;16.77;;;8.80;92.50;;;;;;5072718;28;20036;-90
2023/12/19 04:00:12;;;;;;;22.80;16.35;;;9.10;92.60;;;;;;5084663;28;20040;-89
2023/12/19 04:02:37;;;;;;;24.63;18.63;;;8.60;92.50;;;;;;5066730;28;20032;-89
2023/12/19 04:05:04;;;;;;;23.38;17.85;;;9.10;92.60;;;;;;5071478;28;20078;-89
2023/12/19 04:07:29;;;;;;;26.73;18.35;;;8.40;92.50;;;;;;5075619;28;20501;-89
2023/12/19 04:09:55;;;;;;;18.90;15.27;;;9.20;92.70;;;;;;5072151;28;20032;-89
2023/12/19 04:12:21;;;;;;;20.88;16.85;;;8.50;92.50;;;;;;5068385;28;20059;-89
2023/12/19 04:14:47;;;;;;;20.85;15.63;;;8.10;92.40;;;;;;5070213;28;20522;-89
2023/12/19 04:17:13;;;;;;;20.75;15.57;;;9.40;92.70;;;;;;5070942;28;20130;-89
2023/12/19 04:19:39;;;;;;;18.77;14.68;;;8.50;92.50;;;;;;5086427;28;20032;-89
2023/12/19 04:22:05;;;;;;;21.40;16.15;;;9.00;92.60;;;;;;5069993;28;20048;-89
2023/12/19 04:24:52;;;;;;;20.17;15.85;;;8.30;92.60;;;;;;5086615;28;20407;-89
2023/12/19 04:27:17;;;;;;;19.05;14.90;;;8.30;92.50;;;;;;5089202;28;20469;-89
2023/12/19 04:29:45;;;;;;;20.35;15.82;;;8.80;92.60;;;;;;5069506;28;20029;-89
2023/12/19 04:32:15;;;;;;;23.17;15.98;;;9.00;92.70;;;;;;5086556;28;20032;-89
2023/12/19 04:34:43;;;;;;;23.42;17.23;;;8.60;92.60;;;;;;5074288;28;20036;-89
2023/12/19 04:37:09;;;;;;;19.88;15.57;;;8.70;92.60;;;;;;5077631;28;20530;-89
2023/12/19 04:39:38;;;;;;;21.88;16.17;;;8.60;92.60;;;;;;5086860;28;20044;-89
2023/12/19 04:42:07;;;;;;;18.85;15.02;;;8.70;92.60;;;;;;5109355;28;20119;-90
2023/12/19 04:44:33;;;;;;;23.17;15.77;;;9.20;92.70;;;;;;5089178;28;20425;-89
2023/12/19 04:46:59;;;;;;;19.35;15.40;;;9.10;92.70;;;;;;5083653;28;20139;-89
2023/12/19 04:49:25;;;;;;;19.23;15.23;;;8.70;92.60;;;;;;5100227;28;20502;-90
2023/12/19 04:51:54;;;;;;;18.50;14.82;;;9.40;92.80;;;;;;5101194;28;20040;-90
2023/12/19 04:54:20;;;;;;;21.40;15.65;;;9.30;92.80;;;;;;5094332;28;20047;-89
2023/12/19 04:56:46;;;;;;;19.90;15.68;;;8.70;92.60;;;;;;5116342;28;20043;-90
2023/12/19 04:59:11;;;;;;;19.60;14.98;;;8.70;92.60;;;;;;5099863;28;20040;-89
2023/12/19 05:01:40;;;;;;;19.63;14.93;;;9.40;92.80;;;;;;5090708;28;20038;-90
2023/12/19 05:04:06;;;;;;;17.63;14.27;;;8.70;92.80;;;;;;5082898;28;20509;-90
2023/12/19 05:06:33;;;;;;;20.60;14.63;;;8.70;92.60;;;;;;5107928;28;20039;-89
2023/12/19 05:08:59;;;;;;;17.58;13.68;;;8.70;92.60;;;;;;5085581;28;20048;-89
2023/12/19 05:11:25;;;;;;;18.27;14.10;;;8.50;92.60;;;;;;5085780;28;20042;-90
2023/12/19 05:13:50;;;;;;;18.08;13.68;;;9.40;92.80;;;;;;5083253;28;20036;-89
2023/12/19 05:16:18;;;;;;;15.90;13.25;;;8.80;92.70;;;;;;5086160;28;20059;-90
2023/12/19 05:18:45;;;;;;;15.38;11.85;;;8.70;92.60;;;;;;5086038;28;20036;-89
2023/12/19 05:21:11;;;;;;;17.90;13.48;;;9.00;92.70;;;;;;5086555;28;20042;-89
2023/12/19 05:23:38;;;;;;;15.13;12.05;;;8.80;92.70;;;;;;5101054;28;20040;-89
2023/12/19 05:26:04;;;;;;;13.40;11.73;;;8.80;92.70;;;;;;5087505;28;20402;-89
2023/12/19 05:28:31;;;;;;;15.45;12.50;;;8.80;92.70;;;;;;5090679;28;20432;-89
2023/12/19 05:30:56;;;;;;;15.48;12.13;;;8.80;92.70;;;;;;5089246;28;20077;-89
2023/12/19 05:33:26;;;;;;;15.15;12.40;;;8.80;92.70;;;;;;5095133;28;20110;-89
2023/12/19 05:35:52;;;;;;;15.68;12.10;;;8.80;92.70;;;;;;5090289;28;20036;-89
2023/12/19 05:38:19;;;;;;;14.68;11.38;;;8.80;92.70;;;;;;5090299;28;20043;-89
2023/12/19 05:40:45;;;;;;;14.75;12.07;;;8.80;92.70;;;;;;5108069;28;20080;-89
2023/12/19 05:43:12;;;;;;;14.63;11.68;;;8.80;92.70;;;;;;5097262;28;20035;-90
2023/12/19 05:45:38;;;;;;;14.85;12.55;;;8.80;92.70;;;;;;5093010;28;20032;-90
2023/12/19 05:48:04;;;;;;;13.35;10.55;;;8.80;92.70;;;;;;5087021;28;20383;-90
2023/12/19 05:50:29;;;;;;;16.35;11.77;;;8.80;92.70;;;;;;5088007;28;20036;-90
2023/12/19 05:52:55;;;;;;;12.40;10.05;;;8.80;92.70;;;;;;5091961;28;20043;-92
2023/12/19 05:55:21;;;;;;;12.02;9.95;;;8.80;92.70;;;;;;5089364;28;20038;-90
2023/12/19 05:57:47;;;;;;;12.88;9.73;;;8.80;92.70;;;;;;5090610;28;20097;-90
2023/12/19 06:00:14;;;;;;;11.10;9.05;;;8.80;92.70;;;;;;5089873;28;20118;-90
2023/12/19 06:02:39;;;;;;;12.07;9.55;;;8.80;92.70;;;;;;5111055;28;20036;-90
2023/12/19 06:05:07;;;;;;;12.00;9.25;;;8.80;92.70;;;;;;5088752;28;20032;-90
2023/12/19 06:07:42;;;;;;;11.88;9.27;;;8.80;92.70;;;;;;5105768;28;20080;-90
2023/12/19 06:10:12;;;;;;;11.73;8.77;;;8.80;92.80;;;;;;5094308;28;20478;-90
2023/12/19 06:12:38;;;;;;;10.77;8.45;;;8.80;92.80;;;;;;5081044;28;20038;-90
2023/12/19 06:15:12;;;;;;;10.05;7.97;;;8.80;92.80;;;;;;5112891;28;20090;-90
2023/12/19 06:17:46;;;;;;;10.13;8.25;;;8.80;92.80;;;;;;5090710;28;20100;-90
2023/12/19 06:20:12;;;;;;;10.07;8.10;;;8.80;92.80;;;;;;5090865;28;20436;-90
2023/12/19 06:22:40;;;;;;;9.40;7.80;;;9.30;92.90;;;;;;5090624;28;20035;-90
2023/12/19 06:25:08;;;;;;;10.18;7.72;;;9.10;92.90;;;;;;5089838;28;20051;-90
2023/12/19 06:27:34;;;;;;;9.25;7.63;;;8.80;92.80;;;;;;5089852;28;20475;-90
2023/12/19 06:30:01;;;;;;;9.80;7.60;;;8.80;92.80;;;;;;5097206;28;20088;-90
2023/12/19 06:32:26;;;;;;;10.23;8.25;;;8.80;92.80;;;;;;5094919;28;20037;-91
2023/12/19 06:34:55;;;;;;;10.18;7.63;;;8.80;92.80;;;;;;5089939;28;20470;-90
2023/12/19 06:37:21;;;;;;;9.75;8.00;;;8.80;92.80;;;;;;5091517;28;20448;-90
2023/12/19 06:39:46;;;;;;;10.52;8.05;;;9.50;93.00;;;;;;5098354;28;20047;-91
2023/12/19 06:42:12;;;;;;;10.40;7.93;;;8.90;92.90;;;;;;5089969;28;20028;-90
2023/12/19 06:44:38;;;;;;;10.65;7.70;;;8.80;93.00;;;;;;5089491;28;20093;-90
2023/12/19 06:47:04;;;;;;;11.18;8.60;;;8.80;92.80;;;;;;5086339;28;20402;-91
2023/12/19 06:49:29;;;;;;;10.77;8.07;;;8.80;92.80;;;;;;5089317;28;20220;-91
2023/12/19 06:51:55;;;;;;;10.13;7.63;;;8.90;92.90;;;;;;5090362;28;20030;-90
2023/12/19 06:54:21;;;;;;;10.63;8.43;;;8.90;92.90;;;;;;5090288;28;20052;-90
2023/12/19 06:56:46;;;;;;;12.43;8.43;;;8.80;92.90;;;;;;5087838;28;20457;-90
2023/12/19 06:59:13;;;;;;;10.55;8.15;;;8.80;92.90;;;;;;5087863;28;20031;-91
2023/12/19 07:01:39;;;;;;;11.38;8.80;;;8.90;92.90;;;;;;5085585;28;20114;-90
2023/12/19 07:04:05;;;;;;;10.00;8.18;;;8.90;92.90;;;;;;5103404;28;20522;-90
2023/12/19 07:06:30;;;;;;;10.43;8.60;;;8.90;92.90;;;;;;5090329;28;20030;-90
2023/12/19 07:08:56;;;;;;;10.25;8.13;;;8.90;92.90;;;;;;5093039;28;20028;-90
2023/12/19 07:11:22;;;;;;;10.85;8.60;;;8.90;93.00;;;;;;5085940;28;20039;-91
2023/12/19 07:13:48;;;;;;;9.75;8.32;;;8.90;93.00;;;;;;5089717;28;20113;-90
2023/12/19 07:16:15;;;;;;;9.30;7.47;;;9.20;93.00;;;;;;5088644;28;20038;-90
2023/12/19 07:18:41;;;;;;;9.48;7.75;;;8.90;93.00;;;;;;5090406;28;20119;-90
2023/12/19 07:21:07;;;;;;;10.00;8.23;;;8.90;93.00;;;;;;5093358;28;20132;-90
2023/12/19 07:23:33;;;;;;;10.75;8.35;;;8.90;93.00;;;;;;5109683;28;20027;-90
2023/12/19 07:25:58;;;;;;;10.32;9.00;;;8.90;93.00;;;;;;5095926;28;20028;-90
2023/12/19 07:28:24;;;;;;;10.15;8.23;;;8.90;93.00;;;;;;5094788;28;20028;-90
2023/12/19 07:30:50;;;;;;;10.18;8.45;;;9.40;93.20;;;;;;5087219;28;20044;-91
2023/12/19 07:33:15;;;;;;;9.30;8.15;;;9.30;93.10;;;;;;5087980;28;20024;-90
2023/12/19 07:35:41;;;;;;;10.60;8.57;;;8.90;93.20;;;;;;5098714;28;20052;-91
2023/12/19 07:38:08;;;;;;;10.68;8.65;;;8.90;93.00;;;;;;5087841;28;20134;-91
2023/12/19 07:40:34;;;;;;;11.85;9.32;;;9.00;93.10;;;;;;5102485;28;20039;-91
2023/12/19 07:43:00;;;;;;;10.70;9.48;;;8.90;93.10;;;;;;5089401;28;20075;-91
2023/12/19 07:45:26;;;;;;;10.68;8.18;;;8.90;93.10;;;;;;5090804;28;20067;-91
2023/12/19 07:47:52;;;;;;;10.65;8.52;;;9.00;93.10;;;;;;5088653;28;20036;-91
2023/12/19 07:50:17;;;;;;;9.85;8.40;;;9.30;93.20;;;;;;5090367;28;20032;-91
2023/12/19 07:52:44;;;;;;;12.35;9.40;;;9.00;93.10;;;;;;5088538;28;20031;-91
2023/12/19 07:55:10;;;;;;;10.13;8.70;;;9.00;93.10;;;;;;5086161;28;20039;-91
2023/12/19 07:57:39;;;;;;;10.50;8.57;;;9.00;93.10;;;;;;5083912;28;20043;-91
2023/12/19 08:00:05;;;;;;;10.10;7.80;;;9.00;93.10;;;;;;5085889;28;20422;-91
2023/12/19 08:02:35;;;;;;;11.15;9.23;;;9.00;93.10;;;;;;5088184;28;20039;-91
2023/12/19 08:05:01;;;;;;;11.65;9.38;;;9.00;93.10;;;;;;5109425;28;20047;-91
2023/12/19 08:07:27;;;;;;;10.52;8.75;;;9.10;93.20;;;;;;5086183;28;20035;-91
2023/12/19 08:09:52;;;;;;;10.75;9.07;;;9.50;93.30;;;;;;5090723;28;20040;-91
2023/12/19 08:12:18;;;;;;;10.30;8.98;;;9.10;93.20;;;;;;5100523;28;20036;-90
2023/12/19 08:14:43;;;;;;;9.40;8.05;;;9.10;93.20;;;;;;5108434;28;20120;-90
2023/12/19 08:17:09;;;;;;;11.27;9.27;;;9.10;93.20;;;;;;5088549;28;20067;-91
2023/12/19 08:19:37;;;;;;;10.70;9.45;;;9.10;93.20;;;;;;5085932;28;20042;-91
2023/12/19 08:22:03;;;;;;;11.27;8.95;;;9.10;93.20;;;;;;5103886;28;20075;-90
2023/12/19 08:24:29;;;;;;;9.13;8.15;;;9.10;93.20;;;;;;5090269;28;20063;-91
2023/12/19 08:26:54;;;;;;;10.52;8.85;;;9.10;93.20;;;;;;5084616;28;20532;-91
2023/12/19 08:29:21;;;;;;;10.45;8.95;;;9.10;93.20;;;;;;5088935;28;20402;-91
2023/12/19 08:31:47;;;;;;;10.95;9.82;;;9.30;93.30;;;;;;5088370;28;20114;-90
2023/12/19 08:34:16;;;;;;;10.20;8.65;;;9.20;93.30;;;;;;5101422;28;20093;-90
2023/12/19 08:36:41;;;;;;;10.93;9.38;;;9.20;93.30;;;;;;5088408;28;20132;-90
2023/12/19 08:39:08;;;;;;;9.60;8.60;;;9.20;93.30;;;;;;5086618;28;20036;-91
2023/12/19 08:41:34;;;;;;;11.27;9.20;;;9.20;93.30;;;;;;5086385;28;20058;-90
2023/12/19 08:44:00;;;;;;;9.90;8.27;;;9.20;93.20;;;;;;5089548;28;20441;-90
2023/12/19 08:46:25;;;;;;;10.07;8.52;;;9.20;93.20;;;;;;5091773;28;20043;-90
2023/12/19 08:48:51;;;;;;;10.75;9.35;;;9.20;93.20;;;;;;5088819;28;20042;-90
2023/12/19 08:51:20;;;;;;;10.55;9.10;;;9.30;93.30;;;;;;5089200;28;20115;-90
2023/12/19 08:53:46;;;;;;;10.20;8.65;;;9.20;93.20;;;;;;5098631;28;20061;-89
2023/12/19 08:56:12;;;;;;;10.57;9.48;;;9.30;93.30;;;;;;5082058;28;20455;-90
2023/12/19 08:58:37;;;;;;;10.82;8.75;;;10.00;93.40;;;;;;5105580;28;20028;-90
2023/12/19 09:01:03;;;;;;;12.30;9.75;;;9.30;93.30;;;;;;5089434;28;20039;-90
2023/12/19 09:03:29;;;;;;;11.07;9.05;;;9.30;93.30;;;;;;5085122;28;20028;-90
2023/12/19 09:05:54;;;;;;;9.90;8.82;;;9.30;93.30;;;;;;5084580;28;20042;-90
2023/12/19 09:08:21;;;;;;;13.45;10.85;;;9.40;93.30;;;;;;5087507;28;20037;-90
2023/12/19 09:10:46;;;;;;;11.35;9.60;;;9.50;93.30;;;;;;5087054;28;20063;-90
2023/12/19 09:13:12;;;;;;;12.73;9.90;;;9.30;93.30;;;;;;5085098;28;20666;-90
2023/12/19 09:18:32;;;;;;;7.85;6.65;;;9.40;93.30;;;;;;5111028;28;20036;-91
2023/12/19 09:20:58;;;;;;;11.50;10.00;;;9.30;93.20;;;;;;5091944;28;20040;-91
2023/12/19 09:23:24;;;;;;;10.23;8.95;;;9.40;93.30;;;;;;5097285;28;20038;-90
2023/12/19 09:25:50;;;;;;;10.63;9.40;;;10.00;93.50;;;;;;5086146;28;20131;-91
2023/12/19 09:28:16;;;;;;;11.63;9.38;;;10.00;93.50;;;;;;5089633;28;20531;-91
2023/12/19 09:30:41;;;;;;;11.32;9.45;;;10.00;93.50;;;;;;5093123;28;20040;-91
2023/12/19 09:33:07;;;;;;;12.07;9.60;;;9.40;93.30;;;;;;5088613;28;20058;-91
2023/12/19 09:35:33;;;;;;;10.38;9.23;;;9.40;93.30;;;;;;5091290;28;20039;-91
2023/12/19 09:38:01;;;;;;;11.90;9.45;;;9.40;93.30;;;;;;5100489;28;20611;-91
2023/12/19 09:40:29;;;;;;;9.40;8.35;;;9.60;93.40;;;;;;5091472;28;20040;-91
2023/12/19 09:42:59;;;;;;;10.18;8.80;;;9.40;93.30;;;;;;5112250;28;20401;-90
2023/12/19 09:45:25;;;;;;;9.15;7.90;;;9.90;93.50;;;;;;5099434;28;20031;-91
2023/12/19 09:48:00;;;;;;;8.15;7.18;;;9.40;93.30;;;;;;5099423;28;20047;-91
2023/12/19 09:50:29;;;;;;;8.75;7.60;;;9.50;93.40;;;;;;5102405;28;20023;-91
2023/12/19 09:52:57;;;;;;;7.90;6.57;;;9.40;93.30;;;;;;5096681;28;20044;-91
2023/12/19 09:55:25;;;;;;;7.90;6.57;;;9.50;93.30;;;;;;5115285;28;20039;-91
2023/12/19 09:57:54;;;;;;;7.82;6.55;;;9.50;93.40;;;;;;5099704;28;20112;-90
2023/12/19 10:00:21;;;;;;;8.13;6.65;;;9.50;93.40;;;;;;5099517;28;20046;-91
2023/12/19 10:02:47;;;;;;;7.18;5.88;;;9.50;93.40;;;;;;5096487;28;20043;-91
2023/12/19 10:05:12;;;;;;;7.60;6.20;;;9.80;93.50;;;;;;5097052;28;20465;-91
2023/12/19 10:07:38;;;;;;;7.75;6.75;;;9.70;93.40;;;;;;5094420;28;20032;-91
2023/12/19 10:10:07;;;;;;;9.02;7.25;;;10.10;93.50;;;;;;5094242;28;20135;-91
2023/12/19 10:12:32;;;;;;;8.15;7.00;;;9.60;93.40;;;;;;5092502;28;20038;-91
2023/12/19 10:15:13;;;;;;;7.75;6.95;;;9.50;93.40;;;;;;5085050;28;20027;-91
2023/12/19 10:17:39;;;;;;;8.45;7.07;;;9.60;93.40;;;;;;5084279;28;20044;-91
2023/12/19 10:20:09;;;;;;;8.45;7.32;;;9.50;93.40;;;;;;5108233;28;20114;-91
2023/12/19 10:22:35;;;;;;;7.18;6.07;;;9.60;93.40;;;;;;5087426;28;20114;-91
2023/12/19 10:25:00;;;;;;;8.40;7.05;;;9.60;93.40;;;;;;5095245;28;20135;-89
2023/12/19 10:27:26;;;;;;;7.85;7.05;;;10.30;93.60;;;;;;5089432;28;20040;-89
2023/12/19 10:29:51;;;;;;;8.77;7.15;;;9.60;93.40;;;;;;5090732;28;20114;-91
2023/12/19 10:32:20;;;;;;;8.85;7.60;;;9.60;93.40;;;;;;5091182;28;20035;-91
2023/12/19 10:34:55;;;;;;;9.93;7.95;;;9.60;93.40;;;;;;5090840;28;20055;-91
2023/12/19 10:37:20;;;;;;;;;;;9.60;93.40;;;;;;5089644;28;20388;-91
2023/12/19 10:39:49;;;;;;;7.93;6.78;;;9.60;93.30;;;;;;5105723;28;19923;-91
2023/12/19 10:42:18;;;;;;;9.57;7.53;;;9.60;93.40;;;;;;5087090;28;20043;-91
2023/12/19 10:44:45;;;;;;;8.57;7.15;;;9.60;93.40;;;;;;5105624;28;20077;-91
2023/12/19 10:47:11;;;;;;;8.27;6.95;;;9.60;93.60;;;;;;5086334;28;20110;-91
2023/12/19 10:49:38;;;;;;;8.82;7.50;;;9.60;93.40;;;;;;5089711;28;20114;-91
2023/12/19 10:52:06;;;;;;;8.77;7.80;;;10.00;93.50;;;;;;5086756;28;20491;-91
2023/12/19 10:54:35;;;;;;;9.65;7.60;;;9.70;93.40;;;;;;5090819;28;20398;-91
2023/12/19 10:57:18;;;;;;;8.50;7.55;;;10.30;93.60;;;;;;5108637;28;20127;-91
2023/12/19 10:59:58;;;;;;;8.30;7.47;;;9.70;93.40;;;;;;5103636;28;20061;-91
2023/12/19 11:02:53;;;;;;;8.48;7.47;;;9.70;93.40;;;;;;5088954;28;20123;-90
2023/12/19 11:05:41;;;;;;;8.63;7.63;;;9.70;93.40;;;;;;5101875;28;20044;-91
2023/12/19 11:08:17;;;;;;;9.02;7.70;;;9.70;93.40;;;;;;5106338;28;20036;-91
2023/12/19 11:10:56;;;;;;;8.50;7.60;;;9.90;93.50;;;;;;5089667;28;20432;-91
2023/12/19 11:13:22;;;;;;;9.70;8.00;;;9.70;93.40;;;;;;5095802;28;20031;-91
2023/12/19 11:16:14;;;;;;;8.98;8.07;;;9.70;93.40;;;;;;5088806;28;20032;-91
2023/12/19 11:19:04;;;;;;;9.45;7.95;;;9.70;93.40;;;;;;5100927;28;20044;-91
2023/12/19 11:21:59;;;;;;;8.82;7.70;;;9.80;93.40;;;;;;5088211;28;20044;-91
2023/12/19 11:24:37;;;;;;;8.20;7.35;;;9.70;93.40;;;;;;5086096;28;20036;-91
2023/12/19 11:27:26;;;;;;;8.85;7.95;;;9.70;93.40;;;;;;5093254;28;20120;-90
2023/12/19 11:29:53;;;;;;;8.80;7.90;;;9.80;93.40;;;;;;5090402;28;20036;-91
2023/12/19 11:32:28;;;;;;;8.48;7.60;;;9.80;93.30;;;;;;5092228;28;20024;-91
2023/12/19 11:35:02;;;;;;;8.02;6.97;;;9.80;93.30;;;;;;5097027;28;20040;-91
2023/12/19 11:37:27;;;;;;;8.33;7.53;;;9.80;93.30;;;;;;5089183;28;20056;-91
2023/12/19 11:39:53;;;;;;;8.98;7.38;;;10.20;93.40;;;;;;5106806;28;20498;-91
2023/12/19 11:42:37;;;;;;;8.35;6.85;;;9.80;93.30;;;;;;5089998;28;20027;-91
2023/12/19 11:45:18;;;;;;;6.70;6.00;;;9.80;93.30;;;;;;5090098;28;20046;-91
2023/12/19 11:47:45;;;;;;;7.40;6.55;;;9.80;93.30;;;;;;5090943;28;20047;-91
2023/12/19 11:50:11;;;;;;;7.32;6.60;;;9.80;93.30;;;;;;5090603;28;20099;-91
2023/12/19 11:52:38;;;;;;;7.28;6.57;;;9.80;93.30;;;;;;5085998;28;20064;-91
2023/12/19 11:55:05;;;;;;;7.15;6.28;;;9.80;93.30;;;;;;5089956;28;20514;-90
2023/12/19 11:57:32;;;;;;;7.45;6.10;;;9.80;93.30;;;;;;5091704;28;20065;-90
2023/12/19 12:00:00;;;;;;;6.97;6.25;;;9.80;93.30;;;;;;5106158;28;20067;-90
2023/12/19 12:02:36;;;;;;;7.07;6.38;;;9.80;93.30;;;;;;5109543;28;20039;-90
2023/12/19 12:05:13;;;;;;;6.90;6.00;;;9.90;93.40;;;;;;5107450;28;20027;-89
2023/12/19 12:07:42;;;;;;;6.88;6.03;;;9.90;93.40;;;;;;5110490;28;20096;-90
2023/12/19 12:10:09;;;;;;;7.78;5.82;;;9.90;93.40;;;;;;5106477;28;20742;-90
2023/12/19 12:12:35;;;;;;;6.00;5.40;;;9.90;93.30;;;;;;5082503;28;20487;-90
2023/12/19 12:15:09;;;;;;;6.43;5.82;;;9.90;93.30;;;;;;5091809;28;20076;-90
2023/12/19 12:17:36;;;;;;;6.05;5.45;;;9.90;93.40;;;;;;5104582;28;20510;-90
2023/12/19 12:20:03;;;;;;;6.38;5.63;;;10.00;93.40;;;;;;5089368;28;20032;-90
2023/12/19 12:22:28;;;;;;;6.65;5.45;;;9.80;93.30;;;;;;5089696;28;20039;-90
2023/12/19 12:24:54;;;;;;;7.20;6.05;;;9.90;93.40;;;;;;5088245;28;20404;-90
2023/12/19 12:27:20;;;;;;;5.75;5.00;;;9.90;93.30;;;;;;5085089;28;20079;-90
2023/12/19 12:29:46;;;;;;;6.93;6.10;;;9.90;93.30;;;;;;5087690;28;20043;-90
2023/12/19 12:32:11;;;;;;;6.05;5.45;;;9.90;93.30;;;;;;5087550;28;20028;-90
2023/12/19 12:34:37;;;;;;;7.00;5.65;;;9.90;93.30;;;;;;5087486;28;20034;-90
2023/12/19 12:37:03;;;;;;;7.28;5.68;;;9.90;93.30;;;;;;5089512;28;20502;-90
2023/12/19 12:39:28;;;;;;;5.38;4.88;;;9.90;93.30;;;;;;5085604;28;20110;-90
2023/12/19 12:42:04;;;;;;;6.05;5.28;;;10.50;93.50;;;;;;5089631;28;20085;-90
2023/12/19 12:44:30;;;;;;;5.70;5.10;;;9.90;93.40;;;;;;5086248;28;20461;-90
2023/12/19 12:46:57;;;;;;;6.10;5.50;;;10.00;93.40;;;;;;5089889;28;20035;-90
2023/12/19 12:49:23;;;;;;;5.28;4.70;;;10.00;93.40;;;;;;5088710;28;20032;-90